sensor_id;sensor_type;location;lat;lon;timestamp;P1;durP1;ratioP1;P2;durP2;ratioP2
2476;SDS011;1249;51.270;6.756;2023-04-01T00:00:28;1.67;;;1.20;;
2476;SDS011;1249;51.270;6.756;2023-04-01T00:02:53;2.07;;;1.40;;
2476;SDS011;1249;51.270;6.756;2023-04-01T00:05:19;3.90;;;1.23;;
2476;SDS011;1249;51.270;6.756;2023-04-01T00:07:45;2.30;;;1.40;;
2476;SDS011;1249;51.270;6.756;2023-04-01T00:10:11;2.83;;;1.20;;
2476;SDS011;1249;51.270;6.756;2023-04-01T00:12:39;3.67;;;1.60;;
2476;SDS011;1249;51.270;6.756;2023-04-01T00:15:05;2.73;;;1.10;;
2476;SDS011;1249;51.270;6.756;2023-04-01T00:17:32;2.03;;;1.50;;
2476;SDS011;1249;51.270;6.756;2023-04-01T00:19:58;2.80;;;1.30;;
2476;SDS011;1249;51.270;6.756;2023-04-01T00:22:24;2.50;;;1.50;;
2476;SDS011;1249;51.270;6.756;2023-04-01T00:24:51;3.10;;;1.10;;
2476;SDS011;1249;51.270;6.756;2023-04-01T00:27:16;1.90;;;1.37;;
2476;SDS011;1249;51.270;6.756;2023-04-01T00:29:43;1.77;;;1.20;;
2476;SDS011;1249;51.270;6.756;2023-04-01T00:32:09;2.80;;;1.40;;
2476;SDS011;1249;51.270;6.756;2023-04-01T00:34:35;2.07;;;1.23;;
2476;SDS011;1249;51.270;6.756;2023-04-01T00:37:00;1.43;;;1.10;;
2476;SDS011;1249;51.270;6.756;2023-04-01T00:39:28;1.80;;;1.37;;
2476;SDS011;1249;51.270;6.756;2023-04-01T00:41:54;2.07;;;1.53;;
2476;SDS011;1249;51.270;6.756;2023-04-01T00:44:29;2.20;;;1.50;;
2476;SDS011;1249;51.270;6.756;2023-04-01T00:46:57;2.40;;;1.53;;
2476;SDS011;1249;51.270;6.756;2023-04-01T00:49:25;1.20;;;1.10;;
2476;SDS011;1249;51.270;6.756;2023-04-01T00:51:55;1.73;;;1.00;;
2476;SDS011;1249;51.270;6.756;2023-04-01T00:54:22;1.60;;;1.50;;
2476;SDS011;1249;51.270;6.756;2023-04-01T00:56:57;1.80;;;0.97;;
2476;SDS011;1249;51.270;6.756;2023-04-01T00:59:33;1.93;;;1.30;;
2476;SDS011;1249;51.270;6.756;2023-04-01T01:02:02;1.30;;;1.17;;
2476;SDS011;1249;51.270;6.756;2023-04-01T01:04:31;2.00;;;1.07;;
2476;SDS011;1249;51.270;6.756;2023-04-01T01:10:03;1.20;;;0.90;;
2476;SDS011;1249;51.270;6.756;2023-04-01T01:15:55;1.33;;;1.20;;
2476;SDS011;1249;51.270;6.756;2023-04-01T01:37:58;1.30;;;1.03;;
2476;SDS011;1249;51.270;6.756;2023-04-01T01:40:27;2.10;;;1.23;;
2476;SDS011;1249;51.270;6.756;2023-04-01T01:42:56;2.13;;;1.37;;
2476;SDS011;1249;51.270;6.756;2023-04-01T01:45:25;3.23;;;1.10;;
2476;SDS011;1249;51.270;6.756;2023-04-01T01:47:52;1.93;;;1.10;;
2476;SDS011;1249;51.270;6.756;2023-04-01T01:50:21;1.83;;;1.27;;
2476;SDS011;1249;51.270;6.756;2023-04-01T01:52:48;1.00;;;0.90;;
2476;SDS011;1249;51.270;6.756;2023-04-01T01:55:25;3.73;;;1.13;;
2476;SDS011;1249;51.270;6.756;2023-04-01T01:58:01;1.33;;;0.80;;
2476;SDS011;1249;51.270;6.756;2023-04-01T02:00:35;3.53;;;0.97;;
2476;SDS011;1249;51.270;6.756;2023-04-01T02:03:01;3.03;;;1.17;;
2476;SDS011;1249;51.270;6.756;2023-04-01T02:05:27;1.57;;;0.80;;
2476;SDS011;1249;51.270;6.756;2023-04-01T02:07:57;1.67;;;1.13;;
2476;SDS011;1249;51.270;6.756;2023-04-01T02:10:31;1.00;;;0.90;;
2476;SDS011;1249;51.270;6.756;2023-04-01T02:13:02;1.80;;;1.70;;
2476;SDS011;1249;51.270;6.756;2023-04-01T02:15:36;2.40;;;1.30;;
2476;SDS011;1249;51.270;6.756;2023-04-01T02:18:06;4.40;;;1.20;;
2476;SDS011;1249;51.270;6.756;2023-04-01T02:20:32;1.20;;;1.10;;
2476;SDS011;1249;51.270;6.756;2023-04-01T02:22:59;2.43;;;1.10;;
2476;SDS011;1249;51.270;6.756;2023-04-01T02:25:26;2.07;;;1.00;;
2476;SDS011;1249;51.270;6.756;2023-04-01T02:27:54;4.47;;;1.37;;
2476;SDS011;1249;51.270;6.756;2023-04-01T02:30:23;3.90;;;0.97;;
2476;SDS011;1249;51.270;6.756;2023-04-01T02:32:51;1.67;;;1.10;;
2476;SDS011;1249;51.270;6.756;2023-04-01T02:35:18;1.20;;;1.10;;
2476;SDS011;1249;51.270;6.756;2023-04-01T02:37:45;1.23;;;1.13;;
2476;SDS011;1249;51.270;6.756;2023-04-01T02:40:14;1.97;;;1.07;;
2476;SDS011;1249;51.270;6.756;2023-04-01T02:42:41;1.67;;;0.97;;
2476;SDS011;1249;51.270;6.756;2023-04-01T02:45:07;1.07;;;0.97;;
2476;SDS011;1249;51.270;6.756;2023-04-01T02:47:33;1.60;;;0.97;;
2476;SDS011;1249;51.270;6.756;2023-04-01T02:49:59;1.97;;;1.17;;
2476;SDS011;1249;51.270;6.756;2023-04-01T02:52:25;1.10;;;1.00;;
2476;SDS011;1249;51.270;6.756;2023-04-01T02:54:51;1.60;;;0.93;;
2476;SDS011;1249;51.270;6.756;2023-04-01T02:57:16;1.20;;;1.07;;
2476;SDS011;1249;51.270;6.756;2023-04-01T02:59:42;1.10;;;1.00;;
2476;SDS011;1249;51.270;6.756;2023-04-01T03:02:07;1.53;;;1.00;;
2476;SDS011;1249;51.270;6.756;2023-04-01T03:04:33;2.37;;;1.07;;
2476;SDS011;1249;51.270;6.756;2023-04-01T03:06:58;1.70;;;1.00;;
2476;SDS011;1249;51.270;6.756;2023-04-01T03:09:24;2.07;;;1.00;;
2476;SDS011;1249;51.270;6.756;2023-04-01T03:11:50;6.20;;;1.63;;
2476;SDS011;1249;51.270;6.756;2023-04-01T03:14:15;1.17;;;1.00;;
2476;SDS011;1249;51.270;6.756;2023-04-01T03:16:41;1.20;;;1.10;;
2476;SDS011;1249;51.270;6.756;2023-04-01T03:19:06;1.10;;;1.00;;
2476;SDS011;1249;51.270;6.756;2023-04-01T03:21:32;1.57;;;0.80;;
2476;SDS011;1249;51.270;6.756;2023-04-01T03:23:57;1.60;;;1.20;;
2476;SDS011;1249;51.270;6.756;2023-04-01T03:26:23;1.00;;;0.90;;
2476;SDS011;1249;51.270;6.756;2023-04-01T03:28:51;3.10;;;1.63;;
2476;SDS011;1249;51.270;6.756;2023-04-01T03:31:17;1.83;;;1.00;;
2476;SDS011;1249;51.270;6.756;2023-04-01T03:33:43;1.50;;;0.90;;
2476;SDS011;1249;51.270;6.756;2023-04-01T03:36:09;1.47;;;1.20;;
2476;SDS011;1249;51.270;6.756;2023-04-01T03:38:37;1.00;;;0.90;;
2476;SDS011;1249;51.270;6.756;2023-04-01T03:41:03;1.20;;;1.07;;
2476;SDS011;1249;51.270;6.756;2023-04-01T03:43:28;1.20;;;1.10;;
2476;SDS011;1249;51.270;6.756;2023-04-01T03:45:54;0.90;;;0.80;;
2476;SDS011;1249;51.270;6.756;2023-04-01T03:48:22;1.50;;;0.97;;
2476;SDS011;1249;51.270;6.756;2023-04-01T03:50:47;0.90;;;0.80;;
2476;SDS011;1249;51.270;6.756;2023-04-01T03:53:13;3.63;;;0.90;;
2476;SDS011;1249;51.270;6.756;2023-04-01T03:55:40;0.90;;;0.80;;
2476;SDS011;1249;51.270;6.756;2023-04-01T03:58:06;1.30;;;1.00;;
2476;SDS011;1249;51.270;6.756;2023-04-01T04:00:32;1.60;;;0.90;;
2476;SDS011;1249;51.270;6.756;2023-04-01T04:02:58;1.20;;;1.10;;
2476;SDS011;1249;51.270;6.756;2023-04-01T04:05:24;1.30;;;0.90;;
2476;SDS011;1249;51.270;6.756;2023-04-01T04:07:51;1.57;;;1.00;;
2476;SDS011;1249;51.270;6.756;2023-04-01T04:10:17;1.40;;;1.07;;
2476;SDS011;1249;51.270;6.756;2023-04-01T04:12:43;1.10;;;1.00;;
2476;SDS011;1249;51.270;6.756;2023-04-01T04:15:09;1.20;;;1.10;;
2476;SDS011;1249;51.270;6.756;2023-04-01T04:17:35;1.03;;;0.87;;
2476;SDS011;1249;51.270;6.756;2023-04-01T04:20:01;2.00;;;0.90;;
2476;SDS011;1249;51.270;6.756;2023-04-01T04:22:26;1.07;;;0.80;;
2476;SDS011;1249;51.270;6.756;2023-04-01T04:24:52;1.50;;;0.90;;
2476;SDS011;1249;51.270;6.756;2023-04-01T04:27:17;0.80;;;0.70;;
2476;SDS011;1249;51.270;6.756;2023-04-01T04:29:43;1.03;;;0.93;;
2476;SDS011;1249;51.270;6.756;2023-04-01T04:32:09;1.10;;;1.00;;
2476;SDS011;1249;51.270;6.756;2023-04-01T04:34:34;1.90;;;1.13;;
2476;SDS011;1249;51.270;6.756;2023-04-01T04:37:00;1.10;;;1.00;;
2476;SDS011;1249;51.270;6.756;2023-04-01T04:39:25;1.03;;;0.90;;
2476;SDS011;1249;51.270;6.756;2023-04-01T04:41:51;1.30;;;1.10;;
2476;SDS011;1249;51.270;6.756;2023-04-01T04:44:17;1.27;;;1.17;;
2476;SDS011;1249;51.270;6.756;2023-04-01T04:46:42;1.93;;;0.90;;
2476;SDS011;1249;51.270;6.756;2023-04-01T04:49:08;1.10;;;1.00;;
2476;SDS011;1249;51.270;6.756;2023-04-01T04:51:34;1.37;;;0.83;;
2476;SDS011;1249;51.270;6.756;2023-04-01T04:54:01;0.90;;;0.80;;
2476;SDS011;1249;51.270;6.756;2023-04-01T04:56:28;3.57;;;1.10;;
2476;SDS011;1249;51.270;6.756;2023-04-01T04:58:53;1.17;;;1.07;;
2476;SDS011;1249;51.270;6.756;2023-04-01T05:01:19;1.10;;;1.00;;
2476;SDS011;1249;51.270;6.756;2023-04-01T05:03:45;1.43;;;1.00;;
2476;SDS011;1249;51.270;6.756;2023-04-01T05:06:12;1.40;;;1.30;;
2476;SDS011;1249;51.270;6.756;2023-04-01T05:08:39;3.20;;;1.07;;
2476;SDS011;1249;51.270;6.756;2023-04-01T05:11:06;1.30;;;1.20;;
2476;SDS011;1249;51.270;6.756;2023-04-01T05:13:36;1.23;;;1.13;;
2476;SDS011;1249;51.270;6.756;2023-04-01T05:16:02;1.20;;;1.10;;
2476;SDS011;1249;51.270;6.756;2023-04-01T05:18:27;1.10;;;1.00;;
2476;SDS011;1249;51.270;6.756;2023-04-01T05:20:53;1.67;;;1.57;;
2476;SDS011;1249;51.270;6.756;2023-04-01T05:23:20;1.30;;;1.20;;
2476;SDS011;1249;51.270;6.756;2023-04-01T05:25:50;1.67;;;1.30;;
2476;SDS011;1249;51.270;6.756;2023-04-01T05:28:17;1.10;;;1.00;;
2476;SDS011;1249;51.270;6.756;2023-04-01T05:30:43;2.13;;;1.40;;
2476;SDS011;1249;51.270;6.756;2023-04-01T05:33:09;1.53;;;1.43;;
2476;SDS011;1249;51.270;6.756;2023-04-01T05:35:36;2.40;;;1.40;;
2476;SDS011;1249;51.270;6.756;2023-04-01T05:38:02;2.50;;;1.27;;
2476;SDS011;1249;51.270;6.756;2023-04-01T05:40:28;2.13;;;1.30;;
2476;SDS011;1249;51.270;6.756;2023-04-01T05:42:54;3.07;;;1.40;;
2476;SDS011;1249;51.270;6.756;2023-04-01T05:47:55;1.83;;;1.73;;
2476;SDS011;1249;51.270;6.756;2023-04-01T05:50:21;1.50;;;1.40;;
2476;SDS011;1249;51.270;6.756;2023-04-01T05:52:47;2.57;;;1.60;;
2476;SDS011;1249;51.270;6.756;2023-04-01T05:55:12;2.70;;;1.83;;
2476;SDS011;1249;51.270;6.756;2023-04-01T05:57:38;2.20;;;1.60;;
2476;SDS011;1249;51.270;6.756;2023-04-01T06:00:04;1.93;;;1.47;;
2476;SDS011;1249;51.270;6.756;2023-04-01T06:02:30;1.70;;;1.60;;
2476;SDS011;1249;51.270;6.756;2023-04-01T06:05:03;2.60;;;2.10;;
2476;SDS011;1249;51.270;6.756;2023-04-01T06:07:35;1.50;;;1.40;;
2476;SDS011;1249;51.270;6.756;2023-04-01T06:10:01;3.27;;;1.87;;
2476;SDS011;1249;51.270;6.756;2023-04-01T06:12:39;1.47;;;1.20;;
2476;SDS011;1249;51.270;6.756;2023-04-01T06:15:17;1.87;;;1.77;;
2476;SDS011;1249;51.270;6.756;2023-04-01T06:23:33;2.20;;;2.10;;
2476;SDS011;1249;51.270;6.756;2023-04-01T06:26:24;2.50;;;2.30;;
2476;SDS011;1249;51.270;6.756;2023-04-01T06:29:26;2.30;;;2.10;;
2476;SDS011;1249;51.270;6.756;2023-04-01T06:32:31;2.50;;;2.20;;
2476;SDS011;1249;51.270;6.756;2023-04-01T06:38:30;2.13;;;2.03;;
2476;SDS011;1249;51.270;6.756;2023-04-01T06:40:45;3.03;;;2.03;;
2476;SDS011;1249;51.270;6.756;2023-04-01T06:43:26;2.33;;;1.67;;
2476;SDS011;1249;51.270;6.756;2023-04-01T06:46:09;2.10;;;2.00;;
2476;SDS011;1249;51.270;6.756;2023-04-01T06:54:26;2.50;;;1.90;;
2476;SDS011;1249;51.270;6.756;2023-04-01T06:57:02;2.30;;;2.10;;
2476;SDS011;1249;51.270;6.756;2023-04-01T06:59:49;11.03;;;8.80;;
2476;SDS011;1249;51.270;6.756;2023-04-01T07:02:22;10.17;;;8.20;;
2476;SDS011;1249;51.270;6.756;2023-04-01T07:05:11;66.23;;;43.90;;
2476;SDS011;1249;51.270;6.756;2023-04-01T07:07:43;46.00;;;35.57;;
2476;SDS011;1249;51.270;6.756;2023-04-01T07:10:20;64.20;;;46.20;;
2476;SDS011;1249;51.270;6.756;2023-04-01T07:13:00;17.87;;;16.00;;
2476;SDS011;1249;51.270;6.756;2023-04-01T07:15:33;24.77;;;19.70;;
2476;SDS011;1249;51.270;6.756;2023-04-01T07:18:05;19.03;;;14.20;;
2476;SDS011;1249;51.270;6.756;2023-04-01T07:20:38;30.83;;;20.57;;
2476;SDS011;1249;51.270;6.756;2023-04-01T07:23:06;23.40;;;18.57;;
2476;SDS011;1249;51.270;6.756;2023-04-01T07:26:03;7.23;;;6.60;;
2476;SDS011;1249;51.270;6.756;2023-04-01T07:28:39;16.80;;;10.33;;
2476;SDS011;1249;51.270;6.756;2023-04-01T07:31:24;11.83;;;9.40;;
2476;SDS011;1249;51.270;6.756;2023-04-01T07:34:01;6.10;;;5.50;;
2476;SDS011;1249;51.270;6.756;2023-04-01T07:41:56;3.97;;;3.60;;
2476;SDS011;1249;51.270;6.756;2023-04-01T07:50:27;20.13;;;16.43;;
2476;SDS011;1249;51.270;6.756;2023-04-01T07:53:02;27.83;;;18.93;;
2476;SDS011;1249;51.270;6.756;2023-04-01T08:03:49;3.83;;;3.43;;
2476;SDS011;1249;51.270;6.756;2023-04-01T08:06:30;3.10;;;2.73;;
2476;SDS011;1249;51.270;6.756;2023-04-01T08:19:51;2.17;;;1.97;;
2476;SDS011;1249;51.270;6.756;2023-04-01T08:22:29;2.33;;;2.13;;
2476;SDS011;1249;51.270;6.756;2023-04-01T08:25:20;7.10;;;6.40;;
2476;SDS011;1249;51.270;6.756;2023-04-01T08:28:00;4.50;;;2.83;;
2476;SDS011;1249;51.270;6.756;2023-04-01T08:30:41;3.33;;;2.60;;
2476;SDS011;1249;51.270;6.756;2023-04-01T08:33:21;2.20;;;2.10;;
2476;SDS011;1249;51.270;6.756;2023-04-01T08:35:59;1.80;;;1.60;;
2476;SDS011;1249;51.270;6.756;2023-04-01T08:47:05;4.53;;;4.13;;
2476;SDS011;1249;51.270;6.756;2023-04-01T08:58:17;2.73;;;2.43;;
2476;SDS011;1249;51.270;6.756;2023-04-01T09:03:55;2.93;;;2.73;;
2476;SDS011;1249;51.270;6.756;2023-04-01T09:06:50;4.43;;;2.60;;
2476;SDS011;1249;51.270;6.756;2023-04-01T09:09:48;2.87;;;2.63;;
2476;SDS011;1249;51.270;6.756;2023-04-01T09:12:30;4.00;;;3.03;;
2476;SDS011;1249;51.270;6.756;2023-04-01T09:21:34;2.90;;;2.70;;
2476;SDS011;1249;51.270;6.756;2023-04-01T09:23:44;3.13;;;2.80;;
2476;SDS011;1249;51.270;6.756;2023-04-01T09:29:56;3.23;;;3.03;;
2476;SDS011;1249;51.270;6.756;2023-04-01T09:38:28;2.97;;;2.70;;
2476;SDS011;1249;51.270;6.756;2023-04-01T09:41:01;5.20;;;3.50;;
2476;SDS011;1249;51.270;6.756;2023-04-01T09:44:00;3.27;;;3.07;;
2476;SDS011;1249;51.270;6.756;2023-04-01T10:31:23;6.30;;;5.60;;
2476;SDS011;1249;51.270;6.756;2023-04-01T10:34:26;3.53;;;3.20;;
2476;SDS011;1249;51.270;6.756;2023-04-01T10:37:21;4.07;;;3.77;;
2476;SDS011;1249;51.270;6.756;2023-04-01T10:40:12;6.27;;;5.03;;
2476;SDS011;1249;51.270;6.756;2023-04-01T10:52:01;3.40;;;3.10;;
2476;SDS011;1249;51.270;6.756;2023-04-01T11:06:02;3.70;;;3.50;;
2476;SDS011;1249;51.270;6.756;2023-04-01T11:08:45;3.33;;;3.10;;
2476;SDS011;1249;51.270;6.756;2023-04-01T11:11:40;4.43;;;4.13;;
2476;SDS011;1249;51.270;6.756;2023-04-01T11:14:19;3.67;;;3.37;;
2476;SDS011;1249;51.270;6.756;2023-04-01T11:26:37;5.70;;;3.83;;
2476;SDS011;1249;51.270;6.756;2023-04-01T11:44:23;5.13;;;3.30;;
2476;SDS011;1249;51.270;6.756;2023-04-01T11:55:18;4.10;;;3.70;;
2476;SDS011;1249;51.270;6.756;2023-04-01T12:05:54;4.37;;;3.63;;
2476;SDS011;1249;51.270;6.756;2023-04-01T12:08:27;3.43;;;3.23;;
2476;SDS011;1249;51.270;6.756;2023-04-01T12:11:00;3.27;;;3.07;;
2476;SDS011;1249;51.270;6.756;2023-04-01T12:14:06;3.63;;;3.17;;
2476;SDS011;1249;51.270;6.756;2023-04-01T12:22:03;4.93;;;4.10;;
2476;SDS011;1249;51.270;6.756;2023-04-01T12:32:46;4.90;;;4.37;;
2476;SDS011;1249;51.270;6.756;2023-04-01T12:50:02;9.80;;;8.93;;
2476;SDS011;1249;51.270;6.756;2023-04-01T12:52:40;4.93;;;4.53;;
2476;SDS011;1249;51.270;6.756;2023-04-01T12:55:45;4.37;;;3.97;;
2476;SDS011;1249;51.270;6.756;2023-04-01T13:12:47;3.73;;;3.43;;
2476;SDS011;1249;51.270;6.756;2023-04-01T13:18:22;3.90;;;3.60;;
2476;SDS011;1249;51.270;6.756;2023-04-01T13:26:56;2.80;;;2.60;;
2476;SDS011;1249;51.270;6.756;2023-04-01T13:29:40;2.90;;;2.70;;
2476;SDS011;1249;51.270;6.756;2023-04-01T13:43:24;3.20;;;3.00;;
2476;SDS011;1249;51.270;6.756;2023-04-01T13:57:08;3.10;;;2.70;;
2476;SDS011;1249;51.270;6.756;2023-04-01T14:14:14;2.47;;;2.27;;
2476;SDS011;1249;51.270;6.756;2023-04-01T14:17:03;3.13;;;2.83;;
2476;SDS011;1249;51.270;6.756;2023-04-01T14:20:02;2.60;;;2.40;;
2476;SDS011;1249;51.270;6.756;2023-04-01T14:31:59;3.37;;;3.10;;
2476;SDS011;1249;51.270;6.756;2023-04-01T14:37:29;2.40;;;2.30;;
2476;SDS011;1249;51.270;6.756;2023-04-01T14:40:20;2.60;;;2.00;;
2476;SDS011;1249;51.270;6.756;2023-04-01T14:43:01;2.63;;;2.43;;
2476;SDS011;1249;51.270;6.756;2023-04-01T14:45:45;4.27;;;2.47;;
2476;SDS011;1249;51.270;6.756;2023-04-01T14:48:31;2.37;;;2.23;;
2476;SDS011;1249;51.270;6.756;2023-04-01T14:56:41;2.67;;;2.57;;
2476;SDS011;1249;51.270;6.756;2023-04-01T14:59:09;2.37;;;2.17;;
2476;SDS011;1249;51.270;6.756;2023-04-01T15:01:50;2.73;;;2.47;;
2476;SDS011;1249;51.270;6.756;2023-04-01T15:10:32;2.23;;;2.13;;
2476;SDS011;1249;51.270;6.756;2023-04-01T15:13:18;2.77;;;2.50;;
2476;SDS011;1249;51.270;6.756;2023-04-01T15:22:07;2.23;;;2.13;;
2476;SDS011;1249;51.270;6.756;2023-04-01T15:27:59;3.00;;;2.23;;
2476;SDS011;1249;51.270;6.756;2023-04-01T15:30:51;4.47;;;2.07;;
2476;SDS011;1249;51.270;6.756;2023-04-01T15:33:29;2.10;;;2.00;;
2476;SDS011;1249;51.270;6.756;2023-04-01T15:44:02;2.57;;;1.93;;
2476;SDS011;1249;51.270;6.756;2023-04-01T15:46:41;2.67;;;2.47;;
2476;SDS011;1249;51.270;6.756;2023-04-01T15:49:14;2.00;;;1.90;;
2476;SDS011;1249;51.270;6.756;2023-04-01T16:08:57;2.20;;;2.10;;
2476;SDS011;1249;51.270;6.756;2023-04-01T16:19:56;1.97;;;1.87;;
2476;SDS011;1249;51.270;6.756;2023-04-01T16:25:31;3.00;;;2.80;;
2476;SDS011;1249;51.270;6.756;2023-04-01T16:28:18;3.17;;;2.67;;
2476;SDS011;1249;51.270;6.756;2023-04-01T16:31:04;2.70;;;2.50;;
2476;SDS011;1249;51.270;6.756;2023-04-01T16:33:57;2.60;;;2.40;;
2476;SDS011;1249;51.270;6.756;2023-04-01T16:36:37;2.10;;;2.00;;
2476;SDS011;1249;51.270;6.756;2023-04-01T16:42:34;2.50;;;2.30;;
2476;SDS011;1249;51.270;6.756;2023-04-01T16:47:35;2.80;;;2.60;;
2476;SDS011;1249;51.270;6.756;2023-04-01T16:50:06;3.10;;;2.87;;
2476;SDS011;1249;51.270;6.756;2023-04-01T16:52:45;2.90;;;2.70;;
2476;SDS011;1249;51.270;6.756;2023-04-01T16:55:24;3.23;;;3.00;;
2476;SDS011;1249;51.270;6.756;2023-04-01T16:58:24;2.83;;;2.63;;
2476;SDS011;1249;51.270;6.756;2023-04-01T17:01:02;3.03;;;2.83;;
2476;SDS011;1249;51.270;6.756;2023-04-01T17:03:33;2.60;;;2.40;;
2476;SDS011;1249;51.270;6.756;2023-04-01T17:06:26;3.37;;;2.73;;
2476;SDS011;1249;51.270;6.756;2023-04-01T17:12:06;5.70;;;2.60;;
2476;SDS011;1249;51.270;6.756;2023-04-01T17:14:54;2.80;;;2.50;;
2476;SDS011;1249;51.270;6.756;2023-04-01T17:23:11;4.50;;;4.20;;
2476;SDS011;1249;51.270;6.756;2023-04-01T17:32:09;2.60;;;2.40;;
2476;SDS011;1249;51.270;6.756;2023-04-01T17:50:52;3.03;;;2.70;;
2476;SDS011;1249;51.270;6.756;2023-04-01T17:53:49;2.50;;;2.30;;
2476;SDS011;1249;51.270;6.756;2023-04-01T17:56:55;2.90;;;2.60;;
2476;SDS011;1249;51.270;6.756;2023-04-01T17:59:37;2.47;;;2.30;;
2476;SDS011;1249;51.270;6.756;2023-04-01T18:05:01;2.73;;;2.53;;
2476;SDS011;1249;51.270;6.756;2023-04-01T18:07:59;3.13;;;2.93;;
2476;SDS011;1249;51.270;6.756;2023-04-01T18:13:18;2.40;;;2.30;;
2476;SDS011;1249;51.270;6.756;2023-04-01T18:21:40;6.20;;;2.50;;
2476;SDS011;1249;51.270;6.756;2023-04-01T18:24:28;2.83;;;2.63;;
2476;SDS011;1249;51.270;6.756;2023-04-01T18:27:16;2.60;;;2.40;;
2476;SDS011;1249;51.270;6.756;2023-04-01T18:38:18;3.23;;;2.73;;
2476;SDS011;1249;51.270;6.756;2023-04-01T18:43:33;2.90;;;2.70;;
2476;SDS011;1249;51.270;6.756;2023-04-01T18:46:12;2.80;;;2.60;;
2476;SDS011;1249;51.270;6.756;2023-04-01T18:51:33;2.70;;;2.50;;
2476;SDS011;1249;51.270;6.756;2023-04-01T18:56:47;2.87;;;2.67;;
2476;SDS011;1249;51.270;6.756;2023-04-01T18:59:29;3.17;;;2.87;;
2476;SDS011;1249;51.270;6.756;2023-04-01T19:04:37;2.90;;;2.70;;
2476;SDS011;1249;51.270;6.756;2023-04-01T19:10:27;2.80;;;2.60;;
2476;SDS011;1249;51.270;6.756;2023-04-01T19:18:35;3.30;;;3.10;;
2476;SDS011;1249;51.270;6.756;2023-04-01T19:26:33;3.23;;;3.00;;
2476;SDS011;1249;51.270;6.756;2023-04-01T19:29:19;3.47;;;3.17;;
2476;SDS011;1249;51.270;6.756;2023-04-01T19:34:51;3.30;;;3.10;;
2476;SDS011;1249;51.270;6.756;2023-04-01T19:40:20;29.07;;;16.03;;
2476;SDS011;1249;51.270;6.756;2023-04-01T19:43:18;31.00;;;19.90;;
2476;SDS011;1249;51.270;6.756;2023-04-01T19:51:20;4.80;;;4.50;;
2476;SDS011;1249;51.270;6.756;2023-04-01T19:54:23;6.23;;;5.77;;
2476;SDS011;1249;51.270;6.756;2023-04-01T19:57:17;4.23;;;3.70;;
2476;SDS011;1249;51.270;6.756;2023-04-01T20:00:07;4.13;;;3.83;;
2476;SDS011;1249;51.270;6.756;2023-04-01T20:02:53;5.10;;;4.63;;
2476;SDS011;1249;51.270;6.756;2023-04-01T20:05:25;5.47;;;5.07;;
2476;SDS011;1249;51.270;6.756;2023-04-01T20:10:42;6.30;;;5.70;;
2476;SDS011;1249;51.270;6.756;2023-04-01T20:13:43;4.60;;;4.13;;
2476;SDS011;1249;51.270;6.756;2023-04-01T20:16:20;4.20;;;3.90;;
2476;SDS011;1249;51.270;6.756;2023-04-01T20:26:40;4.93;;;4.47;;
2476;SDS011;1249;51.270;6.756;2023-04-01T20:35:17;5.13;;;4.73;;
2476;SDS011;1249;51.270;6.756;2023-04-01T20:51:18;2.87;;;2.67;;
2476;SDS011;1249;51.270;6.756;2023-04-01T20:54:09;2.97;;;2.77;;
2476;SDS011;1249;51.270;6.756;2023-04-01T21:02:47;3.03;;;2.83;;
2476;SDS011;1249;51.270;6.756;2023-04-01T21:11:25;3.67;;;3.43;;
2476;SDS011;1249;51.270;6.756;2023-04-01T21:14:46;3.50;;;3.30;;
2476;SDS011;1249;51.270;6.756;2023-04-01T21:39:13;2.90;;;2.70;;
2476;SDS011;1249;51.270;6.756;2023-04-01T22:06:46;2.30;;;2.20;;
2476;SDS011;1249;51.270;6.756;2023-04-01T22:09:21;2.47;;;2.30;;
2476;SDS011;1249;51.270;6.756;2023-04-01T22:14:54;2.30;;;2.20;;
2476;SDS011;1249;51.270;6.756;2023-04-01T22:30:54;3.00;;;2.80;;
2476;SDS011;1249;51.270;6.756;2023-04-01T22:33:34;2.70;;;2.50;;
2476;SDS011;1249;51.270;6.756;2023-04-01T22:36:33;2.40;;;2.20;;
2476;SDS011;1249;51.270;6.756;2023-04-01T22:42:30;2.30;;;2.20;;
2476;SDS011;1249;51.270;6.756;2023-04-01T22:50:23;2.20;;;2.10;;
2476;SDS011;1249;51.270;6.756;2023-04-01T22:52:59;2.37;;;2.27;;
2476;SDS011;1249;51.270;6.756;2023-04-01T22:55:37;2.33;;;2.13;;
2476;SDS011;1249;51.270;6.756;2023-04-01T22:58:48;2.97;;;2.67;;
2476;SDS011;1249;51.270;6.756;2023-04-01T23:01:07;2.47;;;2.33;;
2476;SDS011;1249;51.270;6.756;2023-04-01T23:03:40;3.20;;;3.00;;
2476;SDS011;1249;51.270;6.756;2023-04-01T23:06:12;3.07;;;2.87;;
2476;SDS011;1249;51.270;6.756;2023-04-01T23:11:40;2.70;;;2.50;;
2476;SDS011;1249;51.270;6.756;2023-04-01T23:19:37;2.70;;;2.50;;
2476;SDS011;1249;51.270;6.756;2023-04-01T23:27:39;2.70;;;2.50;;
2476;SDS011;1249;51.270;6.756;2023-04-01T23:33:13;3.00;;;2.80;;
2476;SDS011;1249;51.270;6.756;2023-04-01T23:35:51;2.70;;;2.50;;
2476;SDS011;1249;51.270;6.756;2023-04-01T23:38:35;2.50;;;2.30;;
2476;SDS011;1249;51.270;6.756;2023-04-01T23:41:06;2.40;;;2.20;;
2476;SDS011;1249;51.270;6.756;2023-04-01T23:43:41;2.30;;;2.20;;
2476;SDS011;1249;51.270;6.756;2023-04-01T23:46:09;2.50;;;2.30;;
2476;SDS011;1249;51.270;6.756;2023-04-01T23:48:41;4.03;;;2.30;;
2476;SDS011;1249;51.270;6.756;2023-04-01T23:51:20;2.70;;;2.50;;
2476;SDS011;1249;51.270;6.756;2023-04-01T23:53:55;3.10;;;2.90;;
2476;SDS011;1249;51.270;6.756;2023-04-01T23:56:30;2.77;;;2.57;;
2476;SDS011;1249;51.270;6.756;2023-04-01T23:59:04;3.10;;;2.90;;
